Terminal Aerodrome Forecast
Issued by NWS Northern Indiana

Home | Current Version | Previous Version | Text Only | Print | Product List | Glossary On
Versions: 1 2 3 4 5 6 7 8 9 10 11 12 13 14 15
000
FTUS43 KIWX 191200 AAA
TAFFWA
TAF AMD
KFWA 191237Z 1913/2012 08004KT 1/4SM FG VV002
     FM191330 09005KT 4SM BR SCT008
     FM191500 12010KT P6SM SCT250
     FM200000 15005KT P6SM SKC=

USA.gov is the U.S. government's official web portal to all federal, state and local government web resources and services.